createdAt,value
2023-03-27T00:02:24.157Z,6.34
2023-03-27T00:04:54.392Z,6.15
2023-03-27T00:07:22.489Z,6.25
2023-03-27T00:09:51.399Z,6.48
2023-03-27T00:12:19.092Z,6.15
2023-03-27T00:14:47.226Z,6.14
2023-03-27T00:17:14.671Z,6.14
2023-03-27T00:19:42.231Z,6.29
2023-03-27T00:22:10.665Z,6.05
2023-03-27T00:24:38.119Z,6.38
2023-03-27T00:27:06.960Z,6.12
2023-03-27T00:29:34.479Z,6.48
2023-03-27T00:32:01.979Z,6.39
2023-03-27T00:34:30.126Z,6.21
2023-03-27T00:36:58.252Z,6.29
2023-03-27T00:39:25.716Z,5.73
2023-03-27T00:41:55.323Z,6.01
2023-03-27T00:44:31.154Z,5.72
2023-03-27T00:46:58.826Z,5.61
2023-03-27T00:49:31.519Z,5.33
2023-03-27T00:52:00.190Z,5.78
2023-03-27T00:54:31.626Z,5.27
2023-03-27T00:57:03.008Z,5.36
2023-03-27T00:59:34.660Z,5.28
2023-03-27T01:02:03.296Z,5.19
2023-03-27T01:04:31.906Z,5.18
2023-03-27T01:07:00.805Z,5.34
2023-03-27T01:09:28.869Z,5.05
2023-03-27T01:12:10.231Z,5.10
2023-03-27T01:14:48.165Z,5.55
2023-03-27T01:17:31.417Z,5.25
2023-03-27T01:20:27.217Z,5.02
2023-03-27T01:23:36.166Z,5.28
2023-03-27T01:26:36.532Z,4.87
2023-03-27T01:29:12.365Z,4.81
2023-03-27T01:32:02.480Z,4.82
2023-03-27T01:35:01.537Z,4.79
2023-03-27T01:37:53.317Z,4.80
2023-03-27T01:40:25.775Z,4.57
2023-03-27T01:43:00.787Z,4.65
2023-03-27T01:45:31.945Z,4.62
2023-03-27T01:48:05.212Z,4.41
2023-03-27T01:50:39.986Z,4.62
2023-03-27T01:53:13.881Z,4.86
2023-03-27T01:55:49.039Z,4.39
2023-03-27T01:58:20.317Z,4.66
2023-03-27T02:00:53.969Z,4.56
2023-03-27T02:03:26.536Z,4.45
2023-03-27T02:05:58.303Z,4.48
2023-03-27T02:08:31.794Z,4.23
2023-03-27T02:11:01.352Z,4.25
2023-03-27T02:13:37.090Z,4.38
2023-03-27T02:16:06.994Z,4.32
2023-03-27T02:18:38.982Z,4.24
2023-03-27T02:21:07.218Z,4.59
2023-03-27T02:23:38.002Z,4.40
2023-03-27T02:26:07.498Z,4.01
2023-03-27T02:28:42.136Z,4.29
2023-03-27T02:31:32.386Z,4.37
2023-03-27T02:34:39.453Z,4.17
2023-03-27T02:37:19.187Z,3.81
2023-03-27T02:39:55.911Z,4.01
2023-03-27T02:42:34.135Z,4.02
2023-03-27T02:45:08.175Z,3.93
2023-03-27T02:47:41.473Z,3.74
2023-03-27T02:50:15.540Z,3.70
2023-03-27T02:52:48.022Z,3.74
2023-03-27T02:55:18.992Z,3.81
2023-03-27T02:57:52.452Z,3.83
2023-03-27T03:00:25.315Z,3.63
2023-03-27T03:02:59.402Z,3.93
2023-03-27T03:05:27.924Z,3.85
2023-03-27T03:07:58.083Z,4.00
2023-03-27T03:10:27.635Z,3.81
2023-03-27T03:12:56.488Z,3.72
2023-03-27T03:15:23.846Z,3.70
2023-03-27T03:17:51.990Z,3.50
2023-03-27T03:20:19.595Z,4.03
2023-03-27T03:22:47.135Z,3.62
2023-03-27T03:25:14.842Z,3.60
2023-03-27T03:27:44.068Z,3.63
2023-03-27T03:30:17.673Z,3.54
2023-03-27T03:32:47.318Z,3.72
2023-03-27T03:35:15.029Z,3.79
2023-03-27T03:37:42.822Z,3.61
2023-03-27T03:40:12.747Z,3.67
2023-03-27T03:42:45.714Z,3.60
2023-03-27T03:45:14.660Z,3.91
2023-03-27T03:47:44.807Z,3.62
2023-03-27T03:50:13.122Z,3.83
2023-03-27T03:52:41.597Z,3.44
2023-03-27T03:55:11.648Z,3.55
2023-03-27T03:57:39.372Z,3.87
2023-03-27T04:00:11.752Z,3.58
2023-03-27T04:02:43.378Z,4.03
2023-03-27T04:05:11.180Z,3.29
2023-03-27T04:07:40.527Z,3.46
2023-03-27T04:10:09.580Z,3.28
2023-03-27T04:12:37.028Z,3.31
2023-03-27T04:15:04.837Z,3.24
2023-03-27T04:17:33.345Z,3.16
2023-03-27T04:20:05.928Z,3.17
2023-03-27T04:22:37.941Z,3.07
2023-03-27T04:25:06.942Z,3.27
2023-03-27T04:27:35.556Z,3.20
2023-03-27T04:30:03.440Z,2.77
2023-03-27T04:32:31.157Z,3.19
2023-03-27T04:34:58.664Z,2.88
2023-03-27T04:37:30.381Z,2.67
2023-03-27T04:39:58.486Z,3.00
2023-03-27T04:42:26.986Z,2.83
2023-03-27T04:44:54.526Z,2.96
2023-03-27T04:47:22.008Z,2.96
2023-03-27T04:49:50.974Z,3.44
2023-03-27T04:52:19.374Z,3.01
2023-03-27T04:54:48.217Z,2.97
2023-03-27T04:57:18.825Z,2.97
2023-03-27T04:59:46.514Z,2.78
2023-03-27T05:02:13.955Z,2.68
2023-03-27T05:04:41.424Z,3.17
2023-03-27T05:07:10.096Z,3.04
2023-03-27T05:09:37.537Z,3.07
2023-03-27T05:12:06.893Z,2.64
2023-03-27T05:14:34.483Z,3.05
2023-03-27T05:17:02.278Z,2.78
2023-03-27T05:19:30.204Z,2.73
2023-03-27T05:21:57.797Z,2.73
2023-03-27T05:24:25.290Z,3.01
2023-03-27T05:26:52.705Z,3.18
2023-03-27T05:29:21.578Z,2.76
2023-03-27T05:31:49.087Z,2.91
2023-03-27T05:34:16.538Z,2.91
2023-03-27T05:36:44.558Z,2.82
2023-03-27T05:39:11.974Z,2.60
2023-03-27T05:41:39.446Z,2.93
2023-03-27T05:44:07.323Z,2.82
2023-03-27T05:46:36.269Z,2.97
2023-03-27T05:49:04.356Z,2.73
2023-03-27T05:51:32.698Z,2.73
2023-03-27T05:54:00.191Z,3.01
2023-03-27T05:56:27.999Z,3.08
2023-03-27T05:58:55.690Z,2.73
2023-03-27T06:01:23.682Z,2.82
2023-03-27T06:03:55.939Z,2.97
2023-03-27T06:06:26.550Z,3.00
2023-03-27T06:08:54.316Z,2.50
2023-03-27T06:11:21.807Z,2.69
2023-03-27T06:13:49.321Z,2.78
2023-03-27T06:16:20.452Z,2.51
2023-03-27T06:18:48.043Z,2.76
2023-03-27T06:21:17.181Z,2.59
2023-03-27T06:23:44.871Z,2.93
2023-03-27T06:26:12.459Z,2.64
2023-03-27T06:28:40.048Z,2.63
2023-03-27T06:31:08.352Z,2.61
2023-03-27T06:33:36.106Z,2.88
2023-03-27T06:36:05.239Z,3.00
2023-03-27T06:38:34.265Z,2.83
2023-03-27T06:41:01.639Z,2.77
2023-03-27T06:43:29.101Z,2.83
2023-03-27T06:45:56.792Z,3.24
2023-03-27T06:48:24.897Z,3.17
2023-03-27T06:50:53.871Z,2.87
2023-03-27T06:55:53.638Z,2.98
2023-03-27T06:58:21.659Z,2.62
2023-03-27T07:00:50.134Z,2.94
2023-03-27T07:03:18.990Z,2.66
2023-03-27T07:05:46.541Z,2.70
2023-03-27T07:08:23.353Z,2.76
2023-03-27T07:11:09.961Z,2.44
2023-03-27T07:13:40.847Z,2.76
2023-03-27T07:16:08.929Z,2.78
2023-03-27T07:18:36.613Z,3.12
2023-03-27T07:21:04.699Z,3.15
2023-03-27T07:23:32.269Z,2.77
2023-03-27T07:26:02.526Z,2.41
2023-03-27T07:28:29.971Z,2.82
2023-03-27T07:30:57.583Z,2.73
2023-03-27T07:33:25.313Z,2.88
2023-03-27T07:35:52.880Z,2.71
2023-03-27T07:38:20.878Z,2.78
2023-03-27T07:40:49.792Z,2.22
2023-03-27T07:43:18.590Z,2.53
2023-03-27T07:45:46.022Z,2.52
2023-03-27T07:48:15.940Z,2.28
2023-03-27T07:50:44.867Z,2.24
2023-03-27T07:53:34.021Z,2.21
2023-03-27T07:56:00.233Z,2.48
2023-03-27T07:58:29.308Z,2.77
2023-03-27T08:01:01.866Z,2.76
2023-03-27T08:03:30.049Z,3.04
2023-03-27T08:05:59.274Z,3.05
2023-03-27T08:08:28.178Z,3.27
2023-03-27T08:10:56.886Z,3.05
2023-03-27T08:13:24.673Z,2.99
2023-03-27T08:15:53.905Z,2.83
2023-03-27T08:18:21.672Z,3.00
2023-03-27T08:20:53.237Z,3.18
2023-03-27T08:23:20.779Z,3.15
2023-03-27T08:25:51.006Z,3.16
2023-03-27T08:28:18.485Z,3.24
2023-03-27T08:30:46.118Z,3.16
2023-03-27T08:33:14.909Z,3.30
2023-03-27T08:35:42.475Z,3.04
2023-03-27T08:38:23.676Z,3.37
2023-03-27T08:40:53.998Z,3.40
2023-03-27T08:43:26.242Z,3.20
2023-03-27T08:45:58.982Z,3.60
2023-03-27T08:48:34.804Z,3.55
2023-03-27T08:51:06.590Z,3.47
2023-03-27T08:53:41.033Z,3.57
2023-03-27T08:56:13.789Z,3.55
2023-03-27T08:58:41.664Z,3.31
2023-03-27T09:01:16.929Z,3.69
2023-03-27T09:03:51.446Z,3.97
2023-03-27T09:06:26.385Z,3.88
2023-03-27T09:09:03.210Z,4.04
2023-03-27T09:11:41.035Z,3.82
2023-03-27T09:14:16.613Z,3.64
2023-03-27T09:16:49.206Z,3.85
2023-03-27T09:19:29.089Z,3.96
2023-03-27T09:22:02.605Z,3.99
2023-03-27T09:24:34.704Z,3.92
2023-03-27T09:27:16.265Z,3.79
2023-03-27T09:29:43.797Z,3.74
2023-03-27T09:32:15.516Z,4.07
2023-03-27T09:34:46.110Z,3.85
2023-03-27T09:37:17.906Z,3.66
2023-03-27T09:39:50.866Z,4.09
2023-03-27T09:42:24.652Z,4.05
2023-03-27T09:44:56.740Z,4.26
2023-03-27T09:47:32.340Z,4.58
2023-03-27T09:50:21.614Z,4.76
2023-03-27T09:52:49.286Z,4.65
2023-03-27T09:55:26.756Z,4.48
2023-03-27T09:57:58.845Z,4.05
2023-03-27T10:00:30.740Z,4.52
2023-03-27T10:03:05.505Z,4.90
2023-03-27T10:05:35.103Z,5.03
2023-03-27T10:08:19.404Z,4.32
2023-03-27T10:10:57.594Z,4.35
2023-03-27T10:13:27.602Z,4.31
2023-03-27T10:16:00.355Z,4.58
2023-03-27T10:18:30.212Z,4.41
2023-03-27T10:21:00.838Z,4.76
2023-03-27T10:23:30.465Z,4.76
2023-03-27T10:26:01.354Z,4.60
2023-03-27T10:28:30.628Z,4.37
2023-03-27T10:31:00.036Z,4.73
2023-03-27T10:33:31.816Z,4.60
2023-03-27T10:36:01.331Z,4.48
2023-03-27T10:38:28.908Z,4.33
2023-03-27T10:40:57.644Z,4.68
2023-03-27T10:43:29.278Z,4.70
2023-03-27T10:46:00.625Z,4.64
2023-03-27T10:48:44.265Z,4.87
2023-03-27T10:51:33.170Z,4.07
2023-03-27T10:54:14.062Z,3.46
2023-03-27T10:56:52.405Z,3.66
2023-03-27T10:59:40.654Z,3.33
2023-03-27T11:02:16.538Z,4.13
2023-03-27T11:04:52.251Z,3.94
2023-03-27T11:07:28.255Z,4.48
2023-03-27T11:10:04.654Z,4.49
2023-03-27T11:12:36.166Z,4.40
2023-03-27T11:15:11.409Z,4.20
2023-03-27T11:17:44.995Z,4.05
2023-03-27T11:20:21.459Z,4.11
2023-03-27T11:22:57.577Z,4.56
2023-03-27T11:25:36.298Z,4.68
2023-03-27T11:28:15.748Z,5.19
2023-03-27T11:30:49.492Z,4.89
2023-03-27T11:33:35.424Z,4.67
2023-03-27T11:36:14.741Z,4.54
2023-03-27T11:38:49.409Z,4.48
2023-03-27T11:41:16.959Z,4.48
2023-03-27T11:43:44.736Z,4.74
2023-03-27T11:46:30.613Z,5.22
2023-03-27T11:49:11.115Z,5.42
2023-03-27T11:51:53.811Z,5.22
2023-03-27T11:54:37.341Z,5.21
2023-03-27T11:57:08.550Z,5.28
2023-03-27T11:59:48.526Z,5.02
2023-03-27T12:02:39.656Z,5.06
2023-03-27T12:05:14.289Z,4.91
2023-03-27T12:07:53.740Z,4.83
2023-03-27T12:10:29.479Z,4.60
2023-03-27T12:13:41.135Z,4.43
2023-03-27T12:16:27.338Z,3.08
2023-03-27T12:19:13.863Z,1.87
2023-03-27T12:21:58.416Z,2.06
2023-03-27T12:24:46.881Z,1.82
2023-03-27T12:27:42.051Z,2.06
2023-03-27T12:30:24.228Z,2.29
2023-03-27T12:33:12.688Z,2.75
2023-03-27T12:35:46.888Z,4.20
2023-03-27T12:38:23.647Z,3.76
2023-03-27T12:41:02.726Z,4.10
2023-03-27T12:43:33.720Z,3.50
2023-03-27T12:46:17.076Z,3.97
2023-03-27T12:48:52.612Z,3.86
2023-03-27T12:51:20.716Z,2.58
2023-03-27T12:53:51.637Z,1.87
2023-03-27T12:56:26.752Z,2.13
2023-03-27T12:58:57.519Z,2.15
2023-03-27T13:01:52.353Z,1.91
2023-03-27T13:04:41.230Z,2.00
2023-03-27T13:07:14.153Z,1.02
2023-03-27T13:09:56.476Z,1.27
2023-03-27T13:12:57.702Z,1.01
2023-03-27T13:15:39.873Z,1.40
2023-03-27T13:18:35.183Z,1.07
2023-03-27T13:21:16.353Z,2.47
2023-03-27T13:23:57.349Z,3.01
2023-03-27T13:26:40.437Z,2.67
2023-03-27T13:29:15.819Z,2.90
2023-03-27T13:32:07.178Z,2.91
2023-03-27T13:34:40.582Z,3.46
2023-03-27T13:37:42.550Z,2.68
2023-03-27T13:40:26.456Z,2.77
2023-03-27T13:43:01.310Z,2.93
2023-03-27T13:45:38.732Z,3.33
2023-03-27T13:48:21.622Z,2.98
2023-03-27T13:51:19.563Z,3.14
2023-03-27T13:54:16.820Z,3.44
2023-03-27T13:56:57.016Z,3.90
2023-03-27T13:59:47.472Z,3.82
2023-03-27T14:02:44.941Z,4.36
2023-03-27T14:05:32.557Z,4.59
2023-03-27T14:08:27.390Z,4.76
2023-03-27T14:11:12.114Z,4.54
2023-03-27T14:13:53.474Z,4.32
2023-03-27T14:16:42.747Z,3.98
2023-03-27T14:19:32.949Z,4.34
2023-03-27T14:22:05.231Z,4.54
2023-03-27T14:24:38.027Z,4.64
2023-03-27T14:27:07.461Z,4.47
2023-03-27T14:29:35.229Z,4.51
2023-03-27T14:32:04.250Z,4.81
2023-03-27T14:34:47.248Z,4.67
2023-03-27T14:37:31.362Z,4.82
2023-03-27T14:40:00.489Z,4.74
2023-03-27T14:42:32.876Z,5.05
2023-03-27T14:45:20.186Z,4.56
2023-03-27T14:47:50.753Z,5.02
2023-03-27T14:50:18.732Z,4.97
2023-03-27T14:52:52.374Z,5.05
2023-03-27T14:55:20.309Z,4.47
2023-03-27T14:57:50.040Z,5.00
2023-03-27T15:00:21.641Z,5.05
2023-03-27T15:02:52.075Z,4.54
2023-03-27T15:05:22.185Z,4.29
2023-03-27T15:07:52.026Z,4.45
2023-03-27T15:10:24.581Z,4.50
2023-03-27T15:12:52.304Z,4.75
2023-03-27T15:15:34.509Z,4.98
2023-03-27T15:18:05.373Z,5.07
2023-03-27T15:20:36.822Z,5.26
2023-03-27T15:23:13.518Z,5.39
2023-03-27T15:25:45.891Z,5.16
2023-03-27T15:28:23.737Z,4.78
2023-03-27T15:30:54.619Z,4.81
2023-03-27T15:33:33.895Z,4.66
2023-03-27T15:36:05.439Z,4.45
2023-03-27T15:38:37.032Z,4.42
2023-03-27T15:41:41.105Z,4.50
2023-03-27T15:44:13.040Z,4.25
2023-03-27T15:46:54.052Z,4.45
2023-03-27T15:49:28.501Z,4.07
2023-03-27T15:51:56.691Z,4.09
2023-03-27T15:54:29.870Z,4.43
2023-03-27T15:57:09.098Z,4.14
2023-03-27T15:59:52.377Z,4.11
2023-03-27T16:02:21.798Z,4.43
2023-03-27T16:04:53.067Z,4.71
2023-03-27T16:07:23.751Z,4.68
2023-03-27T16:09:55.908Z,4.64
2023-03-27T16:12:30.752Z,4.48
2023-03-27T16:14:59.268Z,4.08
2023-03-27T16:17:34.219Z,4.40
2023-03-27T16:20:26.811Z,4.34
2023-03-27T16:22:55.626Z,4.36
2023-03-27T16:25:22.933Z,4.37
2023-03-27T16:27:54.612Z,4.48
2023-03-27T16:30:27.491Z,4.61
2023-03-27T16:32:55.678Z,4.48
2023-03-27T16:35:23.614Z,4.50
2023-03-27T16:37:51.350Z,4.33
2023-03-27T16:40:20.451Z,4.35
2023-03-27T16:42:48.135Z,4.23
2023-03-27T16:45:16.035Z,4.15
2023-03-27T16:47:44.030Z,4.28
2023-03-27T16:50:19.280Z,4.21
2023-03-27T16:52:46.807Z,4.25
2023-03-27T16:55:14.505Z,4.21
2023-03-27T16:57:43.771Z,4.23
2023-03-27T17:00:12.761Z,3.99
2023-03-27T17:02:40.312Z,3.97
2023-03-27T17:05:09.606Z,3.84
2023-03-27T17:07:37.346Z,3.79
2023-03-27T17:10:05.815Z,3.67
2023-03-27T17:12:33.278Z,3.66
2023-03-27T17:15:02.093Z,3.65
2023-03-27T17:17:30.277Z,3.56
2023-03-27T17:19:57.863Z,3.61
2023-03-27T17:22:26.289Z,3.43
2023-03-27T17:24:57.364Z,3.57
2023-03-27T17:27:26.297Z,3.31
2023-03-27T17:29:55.368Z,3.37
2023-03-27T17:32:24.724Z,3.43
2023-03-27T17:34:52.422Z,3.46
2023-03-27T17:37:20.722Z,3.27
2023-03-27T17:39:48.256Z,3.26
2023-03-27T17:42:16.034Z,3.07
2023-03-27T17:44:44.954Z,3.16
2023-03-27T17:47:12.947Z,3.11
2023-03-27T17:49:43.034Z,3.15
2023-03-27T17:52:12.102Z,3.15
2023-03-27T17:54:40.160Z,3.24
2023-03-27T17:57:07.630Z,3.03
2023-03-27T17:59:36.257Z,2.88
2023-03-27T18:02:03.887Z,3.21
2023-03-27T18:04:33.000Z,3.30
2023-03-27T18:07:01.804Z,3.03
2023-03-27T18:09:29.285Z,3.25
2023-03-27T18:11:56.759Z,3.40
2023-03-27T18:14:24.458Z,3.36
2023-03-27T18:16:52.010Z,3.66
2023-03-27T18:19:19.584Z,3.56
2023-03-27T18:21:47.033Z,3.36
2023-03-27T18:24:15.943Z,3.13
2023-03-27T18:26:43.269Z,3.44
2023-03-27T18:29:11.269Z,2.65
2023-03-27T18:31:38.789Z,2.77
2023-03-27T18:34:06.773Z,2.88
2023-03-27T18:36:34.296Z,2.81
2023-03-27T18:39:01.741Z,3.02
2023-03-27T18:41:30.938Z,2.84
2023-03-27T18:43:58.423Z,2.81
2023-03-27T18:46:26.016Z,2.82
2023-03-27T18:48:53.566Z,2.48
2023-03-27T18:51:21.072Z,2.31
2023-03-27T18:53:50.642Z,2.24
2023-03-27T18:56:18.579Z,2.14
2023-03-27T18:58:47.416Z,2.42
2023-03-27T19:01:14.941Z,2.28
2023-03-27T19:03:43.399Z,2.04
2023-03-27T19:06:12.672Z,2.65
2023-03-27T19:08:41.908Z,2.84
2023-03-27T19:11:10.762Z,2.42
2023-03-27T19:13:38.218Z,2.61
2023-03-27T19:16:15.258Z,2.44
2023-03-27T19:18:43.248Z,2.04
2023-03-27T19:21:10.774Z,2.08
2023-03-27T19:23:38.219Z,2.38
2023-03-27T19:26:10.260Z,2.97
2023-03-27T19:28:37.993Z,2.47
2023-03-27T19:31:08.103Z,2.34
2023-03-27T19:33:36.040Z,2.15
2023-03-27T19:36:03.636Z,2.35
2023-03-27T19:38:31.937Z,2.31
2023-03-27T19:40:59.588Z,2.55
2023-03-27T19:43:27.930Z,2.66
2023-03-27T19:46:08.314Z,2.40
2023-03-27T19:48:43.952Z,3.02
2023-03-27T19:51:11.423Z,2.67
2023-03-27T19:53:38.883Z,2.26
2023-03-27T19:56:06.760Z,2.45
2023-03-27T19:58:34.389Z,2.37
2023-03-27T20:01:01.871Z,2.41
2023-03-27T20:03:29.694Z,2.43
2023-03-27T20:06:07.681Z,2.16
2023-03-27T20:08:37.942Z,2.12
2023-03-27T20:11:06.676Z,1.72
2023-03-27T20:13:42.557Z,1.80
2023-03-27T20:16:17.006Z,1.25
2023-03-27T20:18:44.564Z,1.25
2023-03-27T20:21:13.876Z,1.18
2023-03-27T20:23:43.120Z,0.91
2023-03-27T20:26:10.718Z,1.64
2023-03-27T20:28:38.208Z,1.28
2023-03-27T20:31:06.820Z,1.42
2023-03-27T20:33:34.445Z,1.02
2023-03-27T20:36:02.453Z,1.27
2023-03-27T20:38:32.634Z,1.23
2023-03-27T20:41:03.734Z,1.10
2023-03-27T20:43:34.802Z,1.58
2023-03-27T20:46:03.571Z,1.00
2023-03-27T20:48:41.358Z,1.54
2023-03-27T20:51:14.443Z,0.96
2023-03-27T20:53:44.748Z,1.03
2023-03-27T20:56:14.239Z,1.01
2023-03-27T20:58:44.203Z,1.64
2023-03-27T21:01:12.260Z,1.07
2023-03-27T21:03:42.637Z,0.97
2023-03-27T21:06:12.960Z,1.55
2023-03-27T21:08:41.342Z,1.10
2023-03-27T21:11:10.515Z,1.44
2023-03-27T21:13:38.031Z,1.20
2023-03-27T21:16:06.440Z,0.91
2023-03-27T21:18:34.347Z,1.14
2023-03-27T21:21:01.851Z,1.16
2023-03-27T21:23:29.594Z,1.19
2023-03-27T21:25:58.212Z,1.45
2023-03-27T21:28:27.318Z,1.45
2023-03-27T21:30:56.624Z,1.31
2023-03-27T21:33:24.218Z,1.13
2023-03-27T21:35:51.848Z,1.28
2023-03-27T21:38:21.696Z,1.56
2023-03-27T21:40:49.186Z,1.29
2023-03-27T21:43:16.951Z,1.48
2023-03-27T21:45:46.631Z,1.52
2023-03-27T21:48:14.157Z,1.32
2023-03-27T21:50:41.823Z,1.28
2023-03-27T21:53:09.406Z,1.27
2023-03-27T21:55:37.373Z,1.20
2023-03-27T21:58:04.953Z,1.26
2023-03-27T22:00:32.438Z,1.72
2023-03-27T22:03:01.375Z,1.22
2023-03-27T22:05:28.868Z,1.26
2023-03-27T22:07:57.534Z,1.24
2023-03-27T22:10:24.994Z,1.42
2023-03-27T22:12:52.641Z,1.43
2023-03-27T22:15:20.529Z,1.11
2023-03-27T22:17:48.834Z,1.25
2023-03-27T22:20:18.123Z,1.11
2023-03-27T22:22:45.677Z,1.12
2023-03-27T22:25:13.342Z,1.50
2023-03-27T22:27:41.320Z,0.77
2023-03-27T22:30:09.821Z,1.16
2023-03-27T22:32:41.038Z,1.39
2023-03-27T22:35:09.492Z,1.97
2023-03-27T22:37:38.874Z,1.47
2023-03-27T22:40:08.023Z,2.32
2023-03-27T22:42:36.450Z,1.23
2023-03-27T22:45:04.046Z,0.71
2023-03-27T22:47:32.452Z,2.06
2023-03-27T22:50:00.106Z,0.63
2023-03-27T22:52:27.611Z,1.75
2023-03-27T22:54:56.416Z,1.72
2023-03-27T22:57:23.904Z,1.42
2023-03-27T22:59:52.052Z,0.83
2023-03-27T23:02:19.902Z,0.76
2023-03-27T23:04:47.480Z,0.82
2023-03-27T23:07:14.915Z,0.82
2023-03-27T23:09:42.774Z,1.49
2023-03-27T23:12:11.583Z,2.14
2023-03-27T23:14:39.029Z,1.09
2023-03-27T23:17:06.622Z,1.00
2023-03-27T23:19:34.357Z,0.85
2023-03-27T23:22:01.828Z,0.52
2023-03-27T23:24:29.296Z,1.05
2023-03-27T23:26:56.762Z,0.31
2023-03-27T23:29:25.642Z,0.40
2023-03-27T23:31:53.181Z,0.29
2023-03-27T23:34:20.864Z,0.44
2023-03-27T23:36:48.449Z,0.71
2023-03-27T23:39:15.868Z,0.61
2023-03-27T23:41:43.323Z,0.74
2023-03-27T23:44:10.772Z,0.64
2023-03-27T23:46:39.534Z,0.61
2023-03-27T23:49:07.063Z,0.45
2023-03-27T23:51:34.605Z,0.13
2023-03-27T23:54:02.039Z,0.42
2023-03-27T23:56:29.461Z,0.58
2023-03-27T23:58:56.934Z,0.23
